Time;durP1;ratioP1;P1;durP2;ratioP2;P2;SDS_P1;SDS_P2;PMS_P1;PMS_P2;Temp;Humidity;BMP_temperature;BMP_pressure;BME280_temperature;BME280_humidity;BME280_pressure;Samples;Min_cycle;Max_cycle;Signal;HPM_P1;HPM_P2
2023/01/19 00:00:35;;;;;;;;;;;18.40;39.10;;;;;;8367887;28;20342;-43
2023/01/19 00:04:35;;;;;;;;;;;18.30;39.10;;;;;;8367046;28;19925;-43
2023/01/19 00:08:36;;;;;;;;;;;18.30;39.10;;;;;;8366372;28;20017;-43
2023/01/19 00:12:37;;;;;;;;;;;18.30;39.10;;;;;;8367001;28;20381;-43
2023/01/19 00:16:38;;;;;;;;;;;18.30;39.10;;;;;;8366633;28;19917;-43
2023/01/19 00:20:39;;;;;;;;;;;18.20;39.10;;;;;;8366491;28;20443;-43
2023/01/19 00:24:39;;;;;;;;;;;18.20;39.10;;;;;;8366684;28;20095;-43
2023/01/19 00:28:39;;;;;;;;;;;18.20;39.10;;;;;;8366104;28;19920;-43
2023/01/19 00:32:40;;;;;;;;;;;18.20;39.10;;;;;;8365739;28;20344;-43
2023/01/19 00:36:40;;;;;;;;;;;18.10;39.10;;;;;;8366233;28;19920;-43
2023/01/19 00:40:41;;;;;;;;;;;18.10;39.10;;;;;;8366330;28;20293;-44
2023/01/19 00:44:41;;;;;;;;;;;18.10;39.10;;;;;;8365220;28;19933;-43
2023/01/19 00:48:42;;;;;;;;;;;18.10;39.10;;;;;;8365935;28;20285;-43
2023/01/19 00:52:43;;;;;;;;;;;18.10;39.10;;;;;;8365580;28;19916;-43
2023/01/19 00:56:43;;;;;;;;;;;18.10;39.10;;;;;;8365067;28;20281;-43
2023/01/19 01:00:44;;;;;;;;;;;18.00;39.10;;;;;;8365286;28;19959;-43
2023/01/19 01:04:44;;;;;;;;;;;18.00;39.10;;;;;;8364989;28;19931;-43
2023/01/19 01:08:44;;;;;;;;;;;18.00;39.00;;;;;;8364548;28;20274;-43
2023/01/19 01:12:45;;;;;;;;;;;18.00;39.10;;;;;;8364884;28;20330;-43
2023/01/19 01:16:46;;;;;;;;;;;18.00;39.10;;;;;;8365202;28;19923;-43
2023/01/19 01:20:46;;;;;;;;;;;17.90;39.00;;;;;;8364274;28;19924;-43
2023/01/19 01:24:47;;;;;;;;;;;17.90;39.00;;;;;;8364374;28;19931;-44
2023/01/19 01:28:47;;;;;;;;;;;17.90;39.10;;;;;;8364209;28;20285;-43
2023/01/19 01:32:48;;;;;;;;;;;17.90;39.00;;;;;;8363831;28;19917;-43
2023/01/19 01:36:48;;;;;;;;;;;17.90;39.00;;;;;;8364529;28;19920;-43
2023/01/19 01:40:49;;;;;;;;;;;17.80;39.00;;;;;;8364103;28;19917;-43
2023/01/19 01:44:51;;;;;;;;;;;17.80;39.00;;;;;;8363301;28;20473;-43
2023/01/19 01:49:12;;;;;;;;;;;17.80;39.00;;;;;;8363791;28;19975;-43
2023/01/19 01:53:13;;;;;;;;;;;17.80;39.00;;;;;;8363286;28;19920;-43
2023/01/19 01:57:14;;;;;;;;;;;17.80;39.00;;;;;;8363494;28;19920;-43
2023/01/19 02:05:33;;;;;;;;;;;17.70;38.90;;;;;;8361925;28;19932;-43
2023/01/19 02:13:54;;;;;;;;;;;17.70;39.00;;;;;;8363347;28;19920;-43
2023/01/19 02:17:57;;;;;;;;;;;17.60;39.00;;;;;;8362630;28;19955;-43
2023/01/19 02:22:04;;;;;;;;;;;17.70;39.00;;;;;;8363613;28;20327;-43
2023/01/19 02:26:06;;;;;;;;;;;17.70;39.00;;;;;;8362549;28;19925;-43
2023/01/19 02:30:08;;;;;;;;;;;17.70;39.00;;;;;;8363192;28;19943;-43
2023/01/19 02:34:10;;;;;;;;;;;17.60;38.90;;;;;;8363122;28;19917;-43
2023/01/19 02:38:12;;;;;;;;;;;17.60;38.90;;;;;;8362458;28;19923;-42
2023/01/19 02:42:15;;;;;;;;;;;17.60;38.90;;;;;;8362943;28;20285;-43
2023/01/19 02:46:16;;;;;;;;;;;17.60;38.90;;;;;;8362727;28;19920;-43
2023/01/19 02:50:35;;;;;;;;;;;17.60;38.90;;;;;;8362679;28;19956;-42
2023/01/19 02:54:58;;;;;;;;;;;17.60;38.90;;;;;;8362880;28;19924;-42
2023/01/19 02:58:58;;;;;;;;;;;17.60;38.90;;;;;;8351717;28;19970;-42
2023/01/19 03:03:18;;;;;;;;;;;17.50;38.80;;;;;;8361972;28;19940;-42
2023/01/19 03:07:23;;;;;;;;;;;17.50;38.90;;;;;;8362839;28;19920;-42
2023/01/19 03:11:27;;;;;;;;;;;17.50;38.90;;;;;;8361971;28;19940;-42
2023/01/19 03:15:27;;;;;;;;;;;17.50;38.90;;;;;;8362399;28;19923;-42
2023/01/19 03:19:32;;;;;;;;;;;17.50;38.80;;;;;;8364228;28;19917;-43
2023/01/19 03:23:33;;;;;;;;;;;17.50;38.90;;;;;;8367906;28;19925;-42
2023/01/19 03:27:40;;;;;;;;;;;17.50;38.90;;;;;;8368413;28;20416;-42
2023/01/19 03:31:41;;;;;;;;;;;17.40;38.80;;;;;;8368213;28;20424;-42
2023/01/19 03:35:44;;;;;;;;;;;17.40;38.80;;;;;;8367588;28;19927;-41
2023/01/19 03:39:45;;;;;;;;;;;17.30;38.80;;;;;;8368087;28;20342;-42
2023/01/19 03:43:46;;;;;;;;;;;17.40;38.80;;;;;;8367641;28;19925;-42
2023/01/19 03:47:47;;;;;;;;;;;17.40;38.80;;;;;;8367318;28;20377;-42
2023/01/19 03:51:48;;;;;;;;;;;17.30;38.80;;;;;;8367638;28;19917;-42
2023/01/19 03:55:49;;;;;;;;;;;17.30;38.80;;;;;;8367710;28;19975;-42
2023/01/19 03:59:50;;;;;;;;;;;17.30;38.90;;;;;;8366721;28;19917;-42
2023/01/19 04:03:50;;;;;;;;;;;17.30;38.80;;;;;;8367149;28;19932;-42
2023/01/19 04:07:51;;;;;;;;;;;17.20;38.70;;;;;;8367190;28;19921;-42
2023/01/19 04:11:52;;;;;;;;;;;17.20;38.70;;;;;;8366430;28;19929;-42
2023/01/19 04:15:52;;;;;;;;;;;17.30;38.80;;;;;;8366660;28;19917;-42
2023/01/19 04:19:53;;;;;;;;;;;17.30;38.70;;;;;;8366614;28;19948;-42
2023/01/19 04:23:53;;;;;;;;;;;17.20;38.70;;;;;;8365852;28;20309;-42
2023/01/19 04:27:54;;;;;;;;;;;17.20;38.70;;;;;;8366740;28;19912;-42
2023/01/19 04:31:54;;;;;;;;;;;17.20;38.70;;;;;;8365438;28;19916;-42
2023/01/19 04:35:55;;;;;;;;;;;17.20;38.70;;;;;;8365614;28;19995;-42
2023/01/19 04:39:56;;;;;;;;;;;17.20;38.70;;;;;;8366045;28;19913;-42
2023/01/19 04:43:56;;;;;;;;;;;17.20;38.70;;;;;;8365720;28;19924;-42
2023/01/19 04:47:57;;;;;;;;;;;17.20;38.70;;;;;;8365545;28;19912;-42
2023/01/19 04:51:58;;;;;;;;;;;17.20;38.70;;;;;;8365486;28;20351;-42
2023/01/19 04:55:59;;;;;;;;;;;17.20;38.70;;;;;;8365913;28;19920;-42
2023/01/19 05:00:00;;;;;;;;;;;17.20;38.70;;;;;;8365072;28;19990;-42
2023/01/19 05:04:02;;;;;;;;;;;17.10;38.60;;;;;;8365245;28;19929;-42
2023/01/19 05:08:03;;;;;;;;;;;17.10;38.60;;;;;;8364270;28;19916;-42
2023/01/19 05:12:03;;;;;;;;;;;17.10;38.60;;;;;;8365139;28;19924;-42
2023/01/19 05:16:05;;;;;;;;;;;17.20;38.60;;;;;;8365098;28;19923;-42
2023/01/19 05:20:05;;;;;;;;;;;17.30;38.60;;;;;;8364297;28;20349;-41
2023/01/19 05:24:06;;;;;;;;;;;17.40;38.60;;;;;;8364442;28;19925;-42
2023/01/19 05:28:06;;;;;;;;;;;17.40;38.50;;;;;;8364539;28;19935;-41
2023/01/19 05:32:07;;;;;;;;;;;17.50;38.30;;;;;;8363876;28;19947;-41
2023/01/19 05:36:07;;;;;;;;;;;17.60;38.30;;;;;;8364061;28;19916;-42
2023/01/19 05:40:08;;;;;;;;;;;17.60;38.10;;;;;;8364297;28;20382;-42
2023/01/19 05:44:09;;;;;;;;;;;17.70;38.20;;;;;;8363492;28;19925;-42
2023/01/19 05:48:09;;;;;;;;;;;17.70;38.10;;;;;;8364189;28;20366;-42
2023/01/19 05:52:09;;;;;;;;;;;17.80;38.10;;;;;;8363595;28;20393;-42
2023/01/19 05:56:10;;;;;;;;;;;17.80;38.00;;;;;;8363587;28;19943;-42
2023/01/19 06:00:11;;;;;;;;;;;17.80;38.00;;;;;;8363875;28;19976;-42
2023/01/19 06:04:11;;;;;;;;;;;17.90;37.90;;;;;;8363408;28;19925;-42
2023/01/19 06:08:12;;;;;;;;;;;17.90;37.80;;;;;;8363231;28;20281;-42
2023/01/19 06:12:12;;;;;;;;;;;17.90;37.80;;;;;;8363216;28;19925;-42
2023/01/19 06:16:13;;;;;;;;;;;18.00;37.70;;;;;;8363096;28;19976;-42
2023/01/19 06:20:13;;;;;;;;;;;18.00;37.70;;;;;;8362814;28;20388;-42
2023/01/19 06:24:15;;;;;;;;;;;18.10;37.80;;;;;;8363270;28;20006;-42
2023/01/19 06:28:15;;;;;;;;;;;18.10;37.70;;;;;;8363397;28;19991;-42
2023/01/19 06:32:16;;;;;;;;;;;18.10;37.70;;;;;;8362557;28;19917;-42
2023/01/19 06:36:16;;;;;;;;;;;18.10;37.70;;;;;;8362938;28;20296;-43
2023/01/19 06:40:17;;;;;;;;;;;18.20;37.70;;;;;;8362818;28;19917;-43
2023/01/19 06:44:17;;;;;;;;;;;18.20;37.70;;;;;;8362203;28;19920;-43
2023/01/19 06:48:18;;;;;;;;;;;18.20;37.60;;;;;;8362957;28;19995;-43
2023/01/19 06:52:19;;;;;;;;;;;18.20;37.60;;;;;;8362797;28;19921;-43
2023/01/19 06:56:19;;;;;;;;;;;18.30;37.60;;;;;;8367443;28;20429;-42
2023/01/19 07:00:20;;;;;;;;;;;18.30;37.70;;;;;;8369097;28;19920;-42
2023/01/19 07:04:21;;;;;;;;;;;18.30;37.60;;;;;;8368853;28;19925;-42
2023/01/19 07:08:22;;;;;;;;;;;18.30;37.60;;;;;;8368894;28;19917;-42
2023/01/19 07:12:23;;;;;;;;;;;18.30;37.50;;;;;;8368865;28;19920;-42
2023/01/19 07:16:23;;;;;;;;;;;18.40;37.60;;;;;;8368672;28;19974;-42
2023/01/19 07:20:24;;;;;;;;;;;18.40;37.50;;;;;;8368350;28;20068;-43
2023/01/19 07:24:24;;;;;;;;;;;18.40;37.50;;;;;;8368596;28;20388;-43
2023/01/19 07:28:25;;;;;;;;;;;18.40;37.50;;;;;;8368585;28;19923;-43
2023/01/19 07:32:26;;;;;;;;;;;18.40;37.50;;;;;;8367660;28;19924;-43
2023/01/19 07:36:26;;;;;;;;;;;18.40;37.50;;;;;;8368075;28;19928;-43
2023/01/19 07:40:27;;;;;;;;;;;18.50;37.50;;;;;;8367629;28;19919;-43
2023/01/19 07:44:27;;;;;;;;;;;18.50;37.40;;;;;;8367755;28;19951;-42
2023/01/19 07:48:28;;;;;;;;;;;18.50;37.40;;;;;;8368014;28;19917;-43
2023/01/19 07:52:28;;;;;;;;;;;18.50;37.40;;;;;;8367619;28;19921;-43
2023/01/19 07:56:31;;;;;;;;;;;18.50;37.40;;;;;;8367216;28;20353;-43
2023/01/19 08:00:32;;;;;;;;;;;18.50;37.40;;;;;;8367214;28;19920;-43
2023/01/19 08:04:32;;;;;;;;;;;18.60;37.40;;;;;;8366861;28;20371;-43
2023/01/19 08:08:32;;;;;;;;;;;18.60;37.40;;;;;;8342330;28;19928;-43
2023/01/19 08:12:33;;;;;;;;;;;18.50;37.30;;;;;;8357874;28;19923;-43
2023/01/19 08:16:34;;;;;;;;;;;18.50;37.30;;;;;;8366738;28;19994;-44
2023/01/19 08:20:35;;;;;;;;;;;18.50;37.30;;;;;;8366411;28;19917;-43
2023/01/19 08:24:35;;;;;;;;;;;18.50;37.30;;;;;;8367044;28;19928;-43
2023/01/19 08:28:36;;;;;;;;;;;18.50;37.30;;;;;;8366228;28;19924;-43
2023/01/19 08:32:36;;;;;;;;;;;18.40;37.30;;;;;;8365709;28;19952;-43
2023/01/19 08:36:37;;;;;;;;;;;18.40;37.20;;;;;;8366224;28;20425;-43
2023/01/19 08:40:38;;;;;;;;;;;18.40;37.30;;;;;;8366250;28;19924;-43
2023/01/19 08:44:39;;;;;;;;;;;18.40;37.30;;;;;;8365701;28;19921;-43
2023/01/19 08:48:39;;;;;;;;;;;18.30;37.20;;;;;;8365516;28;19924;-43
2023/01/19 08:52:40;;;;;;;;;;;18.20;37.10;;;;;;8365500;28;19924;-43
2023/01/19 08:56:40;;;;;;;;;;;18.20;37.20;;;;;;8365353;28;19966;-44
2023/01/19 09:00:40;;;;;;;;;;;18.20;37.80;;;;;;8365308;28;20011;-44
2023/01/19 09:04:41;;;;;;;;;;;18.10;37.30;;;;;;8365300;28;19978;-43
2023/01/19 09:08:42;;;;;;;;;;;18.10;37.40;;;;;;8364551;28;20065;-44
2023/01/19 09:12:43;;;;;;;;;;;18.10;37.40;;;;;;8365151;28;19928;-44
2023/01/19 09:16:44;;;;;;;;;;;18.00;37.40;;;;;;8364977;28;19959;-44
2023/01/19 09:20:45;;;;;;;;;;;18.00;37.40;;;;;;8364237;28;19917;-44
2023/01/19 09:24:46;;;;;;;;;;;18.00;37.50;;;;;;8364647;28;19981;-44
2023/01/19 09:28:46;;;;;;;;;;;18.00;37.60;;;;;;8364429;28;19928;-43
2023/01/19 09:32:47;;;;;;;;;;;18.00;37.60;;;;;;8363918;28;19917;-44
2023/01/19 09:36:47;;;;;;;;;;;17.90;37.60;;;;;;8364068;28;19992;-43
2023/01/19 09:40:50;;;;;;;;;;;17.90;37.60;;;;;;8364182;28;19916;-45
2023/01/19 09:44:52;;;;;;;;;;;17.90;37.60;;;;;;8363549;28;20297;-44
2023/01/19 09:48:55;;;;;;;;;;;17.90;37.70;;;;;;8363757;28;19921;-41
2023/01/19 09:52:59;;;;;;;;;;;17.80;37.60;;;;;;8363793;28;19917;-42
2023/01/19 09:57:00;;;;;;;;;;;17.90;37.70;;;;;;8363644;28;19920;-44
2023/01/19 10:01:04;;;;;;;;;;;17.80;37.60;;;;;;8363594;28;20015;-44
2023/01/19 10:05:22;;;;;;;;;;;17.80;37.70;;;;;;8363288;28;19999;-44
2023/01/19 10:09:36;;;;;;;;;;;17.80;37.70;;;;;;8363361;28;19920;-44
2023/01/19 10:13:45;;;;;;;;;;;17.80;37.70;;;;;;8363247;28;19924;-44
2023/01/19 10:17:51;;;;;;;;;;;17.70;37.70;;;;;;8362773;28;19924;-43
2023/01/19 10:21:54;;;;;;;;;;;17.80;37.70;;;;;;8363330;28;19913;-43
2023/01/19 10:25:55;;;;;;;;;;;17.70;37.70;;;;;;8363114;28;19932;-44
2023/01/19 10:29:56;;;;;;;;;;;17.70;37.70;;;;;;8362079;28;19919;-44
2023/01/19 10:33:57;;;;;;;;;;;17.70;37.70;;;;;;8363404;28;20332;-44
2023/01/19 10:37:59;;;;;;;;;;;17.70;37.70;;;;;;8362974;28;19919;-44
2023/01/19 10:42:01;;;;;;;;;;;17.70;37.80;;;;;;8362888;28;20005;-45
2023/01/19 10:46:04;;;;;;;;;;;17.70;37.80;;;;;;8362828;28;20349;-45
2023/01/19 10:50:20;;;;;;;;;;;17.70;37.70;;;;;;8362515;28;19917;-44
2023/01/19 10:54:21;;;;;;;;;;;17.70;37.70;;;;;;8362436;28;19917;-46
2023/01/19 10:58:26;;;;;;;;;;;17.70;37.70;;;;;;8362214;28;20301;-45
2023/01/19 11:02:28;;;;;;;;;;;17.70;37.80;;;;;;8361968;28;20007;-44
2023/01/19 11:06:29;;;;;;;;;;;17.60;37.70;;;;;;8336440;28;20016;-46
2023/01/19 11:10:30;;;;;;;;;;;17.60;37.70;;;;;;8362807;28;19917;-44
2023/01/19 11:14:30;;;;;;;;;;;17.60;37.80;;;;;;8361807;28;19920;-46
2023/01/19 11:18:35;;;;;;;;;;;17.60;37.80;;;;;;8361963;28;19999;-44
2023/01/19 11:22:35;;;;;;;;;;;17.60;37.80;;;;;;8362018;28;19917;-45
2023/01/19 11:26:40;;;;;;;;;;;17.60;37.90;;;;;;8362128;28;19921;-48
2023/01/19 11:30:52;;;;;;;;;;;17.60;37.90;;;;;;8360995;28;20011;-46
2023/01/19 11:34:52;;;;;;;;;;;17.60;37.90;;;;;;8361944;28;20400;-46
2023/01/19 11:38:54;;;;;;;;;;;17.50;37.80;;;;;;8361517;28;20008;-45
2023/01/19 11:42:56;;;;;;;;;;;17.50;37.80;;;;;;8367299;28;19967;-48
2023/01/19 11:47:04;;;;;;;;;;;17.50;37.80;;;;;;8367691;28;19916;-46
2023/01/19 11:51:09;;;;;;;;;;;17.50;37.90;;;;;;8367247;28;19917;-44
2023/01/19 11:55:09;;;;;;;;;;;17.50;37.80;;;;;;8367524;28;19947;-46
2023/01/19 11:59:10;;;;;;;;;;;17.50;37.90;;;;;;8366725;28;19921;-46
2023/01/19 12:03:11;;;;;;;;;;;17.50;37.90;;;;;;8367026;28;19924;-45
2023/01/19 12:07:13;;;;;;;;;;;17.50;37.90;;;;;;8367212;28;19978;-46
2023/01/19 12:11:16;;;;;;;;;;;17.50;37.80;;;;;;8366751;28;19916;-46
2023/01/19 12:15:23;;;;;;;;;;;17.40;37.80;;;;;;8367319;28;19921;-45
2023/01/19 12:19:26;;;;;;;;;;;17.50;37.90;;;;;;8366607;28;20007;-45
2023/01/19 12:23:32;;;;;;;;;;;17.40;37.90;;;;;;8366165;28;19925;-44
2023/01/19 12:27:33;;;;;;;;;;;17.50;37.90;;;;;;8366711;28;19920;-44
2023/01/19 12:31:33;;;;;;;;;;;17.40;37.90;;;;;;8366161;28;20297;-45
2023/01/19 12:35:52;;;;;;;;;;;17.40;37.90;;;;;;8365967;28;19921;-45
2023/01/19 12:39:55;;;;;;;;;;;17.40;37.80;;;;;;8366020;28;19920;-46
2023/01/19 12:44:10;;;;;;;;;;;17.40;37.80;;;;;;8365970;28;19924;-45
2023/01/19 12:48:24;;;;;;;;;;;17.40;37.80;;;;;;8365821;28;20391;-45
2023/01/19 12:52:27;;;;;;;;;;;17.40;37.80;;;;;;8364981;28;19986;-44
2023/01/19 12:56:29;;;;;;;;;;;17.40;37.80;;;;;;8365465;28;19921;-45
2023/01/19 13:00:31;;;;;;;;;;;17.40;37.80;;;;;;8365624;28;20309;-45
2023/01/19 13:04:32;;;;;;;;;;;17.40;37.80;;;;;;8365334;28;19924;-45
2023/01/19 13:08:51;;;;;;;;;;;17.40;37.80;;;;;;8364550;28;19924;-45
2023/01/19 13:13:27;;;;;;;;;;;17.40;37.80;;;;;;8364974;28;19913;-45
2023/01/19 13:17:32;;;;;;;;;;;17.40;37.80;;;;;;8266092;28;21280;-45
2023/01/19 13:21:32;;;;;;;;;;;17.40;37.80;;;;;;8365162;28;19950;-43
2023/01/19 13:25:34;;;;;;;;;;;17.30;37.70;;;;;;8364637;28;20003;-44
2023/01/19 13:29:36;;;;;;;;;;;17.30;37.70;;;;;;8364184;28;19923;-45
2023/01/19 13:33:45;;;;;;;;;;;17.40;37.70;;;;;;8359288;28;19917;-43
2023/01/19 13:37:46;;;;;;;;;;;17.30;37.70;;;;;;8364224;28;19924;-44
2023/01/19 13:41:48;;;;;;;;;;;17.30;37.70;;;;;;8361605;28;19917;-43
2023/01/19 13:45:49;;;;;;;;;;;17.30;37.70;;;;;;8343924;28;19932;-44
2023/01/19 13:49:53;;;;;;;;;;;17.30;37.70;;;;;;8354410;28;20138;-43
2023/01/19 13:53:58;;;;;;;;;;;17.30;37.70;;;;;;8335927;28;20448;-44
2023/01/19 13:57:58;;;;;;;;;;;17.30;37.70;;;;;;8339411;28;20293;-44
2023/01/19 14:02:02;;;;;;;;;;;17.30;37.70;;;;;;8348335;28;19918;-43
2023/01/19 14:06:03;;;;;;;;;;;17.30;37.80;;;;;;8359719;28;20266;-45
2023/01/19 14:10:04;;;;;;;;;;;17.20;37.80;;;;;;8355674;28;19916;-44
2023/01/19 14:14:19;;;;;;;;;;;17.30;37.80;;;;;;8335591;28;20294;-43
2023/01/19 14:18:20;;;;;;;;;;;17.30;37.80;;;;;;8343492;28;19921;-44
2023/01/19 14:22:35;;;;;;;;;;;17.30;37.90;;;;;;8335052;28;20324;-45
2023/01/19 14:26:36;;;;;;;;;;;17.20;37.80;;;;;;8361817;28;19925;-44
2023/01/19 14:30:36;;;;;;;;;;;17.20;37.80;;;;;;8363201;28;19916;-44
2023/01/19 14:34:38;;;;;;;;;;;17.20;37.80;;;;;;8361849;28;20370;-44
2023/01/19 14:38:45;;;;;;;;;;;17.20;37.90;;;;;;8361966;28;19962;-44
2023/01/19 14:42:51;;;;;;;;;;;17.20;37.90;;;;;;8352885;28;19921;-44
2023/01/19 14:46:52;;;;;;;;;;;17.20;37.90;;;;;;8357415;28;20302;-44
2023/01/19 14:50:58;;;;;;;;;;;17.20;37.90;;;;;;8359552;28;20109;-44
2023/01/19 14:55:01;;;;;;;;;;;17.20;37.90;;;;;;8361593;28;19920;-44
2023/01/19 14:59:07;;;;;;;;;;;17.20;38.00;;;;;;8361199;28;19947;-43
2023/01/19 15:03:08;;;;;;;;;;;17.20;37.90;;;;;;8339031;28;19921;-44
2023/01/19 15:07:16;;;;;;;;;;;17.10;37.90;;;;;;8337193;28;20004;-45
2023/01/19 15:11:33;;;;;;;;;;;17.20;37.90;;;;;;8360899;28;20384;-45
2023/01/19 15:15:34;;;;;;;;;;;17.20;38.00;;;;;;8347789;28;19975;-44
2023/01/19 15:19:34;;;;;;;;;;;17.10;38.00;;;;;;8356396;28;19920;-44
2023/01/19 15:23:35;;;;;;;;;;;17.10;38.00;;;;;;8355567;28;20313;-44
2023/01/19 15:27:35;;;;;;;;;;;17.10;38.00;;;;;;8366794;28;20266;-44
2023/01/19 15:31:36;;;;;;;;;;;17.10;38.00;;;;;;8367547;28;19913;-44
2023/01/19 15:35:36;;;;;;;;;;;17.10;37.90;;;;;;8366691;28;19917;-45
2023/01/19 15:39:37;;;;;;;;;;;17.10;38.00;;;;;;8367099;28;19967;-45
2023/01/19 15:43:37;;;;;;;;;;;17.10;38.00;;;;;;8367888;28;19931;-44
2023/01/19 15:47:37;;;;;;;;;;;17.10;38.00;;;;;;8359690;28;20004;-43
2023/01/19 15:51:38;;;;;;;;;;;17.10;38.00;;;;;;8366763;28;19923;-44
2023/01/19 15:55:39;;;;;;;;;;;17.10;38.00;;;;;;8364954;28;19932;-45
2023/01/19 15:59:39;;;;;;;;;;;17.10;38.00;;;;;;8365877;28;20007;-45
2023/01/19 16:03:40;;;;;;;;;;;17.10;38.00;;;;;;8365057;28;19924;-43
2023/01/19 16:07:40;;;;;;;;;;;17.00;38.00;;;;;;8335931;28;19924;-44
2023/01/19 16:11:41;;;;;;;;;;;17.00;38.00;;;;;;8365320;28;19924;-45
2023/01/19 16:15:41;;;;;;;;;;;17.10;38.10;;;;;;8355781;28;20374;-44
2023/01/19 16:19:42;;;;;;;;;;;17.10;38.00;;;;;;8348888;28;19924;-45
2023/01/19 16:23:42;;;;;;;;;;;17.20;38.00;;;;;;8366120;28;19975;-46
2023/01/19 16:27:42;;;;;;;;;;;17.30;37.80;;;;;;8336975;28;19927;-45
2023/01/19 16:31:44;;;;;;;;;;;17.30;37.70;;;;;;8364551;28;19924;-45
2023/01/19 16:35:44;;;;;;;;;;;17.40;37.60;;;;;;8365887;28;19971;-44
2023/01/19 16:39:45;;;;;;;;;;;17.50;37.60;;;;;;8366306;28;20492;-46
2023/01/19 16:43:49;;;;;;;;;;;17.50;37.60;;;;;;8366189;28;19983;-45
2023/01/19 16:47:51;;;;;;;;;;;17.60;37.60;;;;;;8365591;28;19913;-45
2023/01/19 16:51:53;;;;;;;;;;;17.60;37.50;;;;;;8366077;28;19923;-44
2023/01/19 16:55:54;;;;;;;;;;;17.60;37.50;;;;;;8365775;28;19932;-44
2023/01/19 16:59:54;;;;;;;;;;;17.70;37.50;;;;;;8365029;28;20312;-45
2023/01/19 17:03:55;;;;;;;;;;;17.70;37.50;;;;;;8365468;28;19925;-44
2023/01/19 17:07:55;;;;;;;;;;;17.70;37.40;;;;;;8338978;28;19920;-45
2023/01/19 17:11:57;;;;;;;;;;;17.80;37.40;;;;;;8362370;28;20303;-45
2023/01/19 17:16:00;;;;;;;;;;;17.80;37.40;;;;;;8365435;28;19917;-44
2023/01/19 17:20:02;;;;;;;;;;;17.90;37.30;;;;;;8364439;28;19960;-45
2023/01/19 17:24:02;;;;;;;;;;;17.90;37.30;;;;;;8364476;28;19931;-45
2023/01/19 17:28:03;;;;;;;;;;;18.00;37.30;;;;;;8365037;28;19917;-45
2023/01/19 17:32:04;;;;;;;;;;;18.00;37.30;;;;;;8364172;28;19974;-44
2023/01/19 17:36:05;;;;;;;;;;;18.00;37.30;;;;;;8364755;28;20377;-46
2023/01/19 17:40:06;;;;;;;;;;;18.10;37.20;;;;;;8364238;28;19924;-44
2023/01/19 17:44:06;;;;;;;;;;;18.10;37.20;;;;;;8362326;28;19925;-45
2023/01/19 17:48:07;;;;;;;;;;;18.10;37.20;;;;;;8364354;28;19955;-44
2023/01/19 17:52:07;;;;;;;;;;;18.20;37.20;;;;;;8363835;28;19921;-43
2023/01/19 17:56:09;;;;;;;;;;;18.20;37.10;;;;;;8363425;28;20377;-44
2023/01/19 18:00:10;;;;;;;;;;;18.20;37.10;;;;;;8364052;28;19924;-44
2023/01/19 18:04:10;;;;;;;;;;;18.30;37.10;;;;;;8363828;28;19924;-43
2023/01/19 18:08:11;;;;;;;;;;;18.30;37.10;;;;;;8363468;28;19936;-44
2023/01/19 18:12:11;;;;;;;;;;;18.30;37.00;;;;;;8363638;28;20341;-45
2023/01/19 18:16:14;;;;;;;;;;;18.30;37.20;;;;;;8363396;28;19917;-44
2023/01/19 18:20:14;;;;;;;;;;;18.40;37.10;;;;;;8362816;28;19928;-45
2023/01/19 18:24:15;;;;;;;;;;;18.40;37.00;;;;;;8347267;28;19925;-46
2023/01/19 18:28:15;;;;;;;;;;;18.40;37.80;;;;;;8346187;28;19917;-41
2023/01/19 18:32:16;;;;;;;;;;;18.50;37.30;;;;;;8356849;28;19924;-44
2023/01/19 18:36:16;;;;;;;;;;;18.50;37.20;;;;;;8361935;28;20142;-44
2023/01/19 18:40:17;;;;;;;;;;;18.50;37.10;;;;;;8362981;28;20351;-45
2023/01/19 18:44:17;;;;;;;;;;;18.50;37.00;;;;;;8362352;28;20413;-45
2023/01/19 18:48:18;;;;;;;;;;;18.50;37.10;;;;;;8363383;28;19916;-45
2023/01/19 18:52:19;;;;;;;;;;;18.60;37.10;;;;;;8368000;28;19983;-44
2023/01/19 18:56:19;;;;;;;;;;;18.60;37.00;;;;;;8369649;28;19928;-45
2023/01/19 19:00:20;;;;;;;;;;;18.60;37.00;;;;;;8369423;28;20289;-45
2023/01/19 19:04:20;;;;;;;;;;;18.60;36.90;;;;;;8369171;28;19999;-45
2023/01/19 19:08:22;;;;;;;;;;;18.60;37.00;;;;;;8368706;28;19924;-45
2023/01/19 19:12:22;;;;;;;;;;;18.60;37.00;;;;;;8369076;28;20278;-45
2023/01/19 19:16:23;;;;;;;;;;;18.70;36.90;;;;;;8368826;28;19917;-45
2023/01/19 19:20:23;;;;;;;;;;;18.70;36.90;;;;;;8368237;28;19924;-45
2023/01/19 19:24:24;;;;;;;;;;;18.70;36.80;;;;;;8368311;28;20356;-44
2023/01/19 19:28:24;;;;;;;;;;;18.70;36.90;;;;;;8368663;28;19923;-46
2023/01/19 19:32:24;;;;;;;;;;;18.70;36.90;;;;;;8367961;28;20015;-44
2023/01/19 19:36:26;;;;;;;;;;;18.80;36.90;;;;;;8368008;28;19917;-46
2023/01/19 19:40:27;;;;;;;;;;;18.80;36.90;;;;;;8368262;28;19919;-45
2023/01/19 19:44:27;;;;;;;;;;;18.80;36.80;;;;;;8367290;28;19933;-45
2023/01/19 19:48:28;;;;;;;;;;;18.80;36.80;;;;;;8368371;28;19955;-45
2023/01/19 19:52:28;;;;;;;;;;;18.80;36.80;;;;;;8367812;28;20015;-44
2023/01/19 19:56:30;;;;;;;;;;;18.80;36.80;;;;;;8367913;28;19943;-45
2023/01/19 20:00:30;;;;;;;;;;;18.80;36.90;;;;;;8367621;28;19990;-45
2023/01/19 20:04:31;;;;;;;;;;;18.80;36.70;;;;;;8367309;28;20343;-44
2023/01/19 20:08:31;;;;;;;;;;;18.80;36.80;;;;;;8365749;28;20004;-45
2023/01/19 20:12:32;;;;;;;;;;;18.80;36.70;;;;;;8367328;28;20336;-45
2023/01/19 20:16:33;;;;;;;;;;;18.90;36.80;;;;;;8367117;28;19920;-44
2023/01/19 20:20:33;;;;;;;;;;;18.90;36.80;;;;;;8366873;28;19988;-44
2023/01/19 20:24:34;;;;;;;;;;;18.90;36.70;;;;;;8366655;28;20011;-44
2023/01/19 20:28:35;;;;;;;;;;;18.90;36.80;;;;;;8367040;28;20275;-45
2023/01/19 20:32:37;;;;;;;;;;;18.90;36.70;;;;;;8364992;28;19917;-45
2023/01/19 20:36:38;;;;;;;;;;;18.90;36.70;;;;;;8366375;28;20369;-44
2023/01/19 20:40:38;;;;;;;;;;;18.90;36.60;;;;;;8366433;28;19913;-45
2023/01/19 20:44:39;;;;;;;;;;;18.90;36.60;;;;;;8365958;28;19925;-45
2023/01/19 20:48:39;;;;;;;;;;;19.00;36.70;;;;;;8365998;28;19952;-43
2023/01/19 20:52:39;;;;;;;;;;;19.00;36.60;;;;;;8365910;28;19977;-44
2023/01/19 20:56:40;;;;;;;;;;;19.00;36.70;;;;;;8365672;28;19928;-44
2023/01/19 21:00:41;;;;;;;;;;;19.00;36.70;;;;;;8365937;28;20381;-44
2023/01/19 21:04:41;;;;;;;;;;;19.00;36.70;;;;;;8365729;28;20023;-45
2023/01/19 21:08:42;;;;;;;;;;;19.00;36.70;;;;;;8364892;28;20035;-45
2023/01/19 21:12:43;;;;;;;;;;;19.00;36.60;;;;;;8364960;28;20298;-46
2023/01/19 21:16:43;;;;;;;;;;;19.00;36.60;;;;;;8365224;28;20015;-44
2023/01/19 21:20:46;;;;;;;;;;;19.00;36.60;;;;;;8364626;28;20388;-45
2023/01/19 21:24:46;;;;;;;;;;;19.00;36.50;;;;;;8365068;28;20374;-46
2023/01/19 21:28:48;;;;;;;;;;;18.90;36.50;;;;;;8364717;28;20254;-44
2023/01/19 21:32:49;;;;;;;;;;;18.90;36.50;;;;;;8364220;28;19917;-44
2023/01/19 21:36:49;;;;;;;;;;;18.90;36.50;;;;;;8364428;28;20015;-44
2023/01/19 21:40:50;;;;;;;;;;;18.80;37.10;;;;;;8364467;28;19996;-45
2023/01/19 21:44:50;;;;;;;;;;;18.80;36.60;;;;;;8364620;28;19921;-44
2023/01/19 21:48:51;;;;;;;;;;;18.80;36.60;;;;;;8364186;28;19923;-44
2023/01/19 21:52:51;;;;;;;;;;;18.80;36.60;;;;;;8364027;28;19916;-44
2023/01/19 21:56:51;;;;;;;;;;;18.80;36.60;;;;;;8363717;28;19991;-43
2023/01/19 22:01:02;;;;;;;;;;;18.70;36.60;;;;;;8364223;28;19978;-43
2023/01/19 22:05:05;;;;;;;;;;;18.70;36.60;;;;;;8363453;28;19924;-43
2023/01/19 22:09:06;;;;;;;;;;;18.60;36.60;;;;;;8364097;28;19940;-43
2023/01/19 22:13:06;;;;;;;;;;;18.60;36.60;;;;;;8363773;28;19924;-44
2023/01/19 22:17:07;;;;;;;;;;;18.60;36.60;;;;;;8363193;28;19913;-43
2023/01/19 22:21:15;;;;;;;;;;;18.60;36.60;;;;;;8363306;28;19959;-44
2023/01/19 22:25:16;;;;;;;;;;;18.50;36.60;;;;;;8362612;28;19925;-44
2023/01/19 22:29:16;;;;;;;;;;;18.50;36.60;;;;;;8362902;28;20347;-44
2023/01/19 22:33:17;;;;;;;;;;;18.50;36.60;;;;;;8363344;28;20017;-44
2023/01/19 22:37:17;;;;;;;;;;;18.50;36.70;;;;;;8363040;28;19917;-44
2023/01/19 22:41:19;;;;;;;;;;;18.40;36.80;;;;;;8362589;28;20440;-44
2023/01/19 22:45:20;;;;;;;;;;;18.40;36.90;;;;;;8363518;28;20301;-43
2023/01/19 22:49:21;;;;;;;;;;;18.30;36.90;;;;;;8363034;28;19917;-43
2023/01/19 22:53:21;;;;;;;;;;;18.30;37.00;;;;;;8362403;28;20273;-44
2023/01/19 22:57:22;;;;;;;;;;;18.20;37.10;;;;;;8363030;28;19921;-44
2023/01/19 23:01:24;;;;;;;;;;;18.20;37.20;;;;;;8361829;28;20015;-44
2023/01/19 23:05:25;;;;;;;;;;;18.20;37.30;;;;;;8361681;28;19929;-43
2023/01/19 23:09:25;;;;;;;;;;;18.10;37.30;;;;;;8362593;28;19962;-43
2023/01/19 23:13:26;;;;;;;;;;;18.00;37.30;;;;;;8362489;28;20347;-44
2023/01/19 23:17:26;;;;;;;;;;;18.00;37.30;;;;;;8362004;28;19924;-44
2023/01/19 23:21:27;;;;;;;;;;;18.00;37.40;;;;;;8362370;28;19987;-43
2023/01/19 23:25:29;;;;;;;;;;;18.00;37.40;;;;;;8362593;28;20298;-45
2023/01/19 23:29:30;;;;;;;;;;;17.90;37.30;;;;;;8361888;28;19956;-44
2023/01/19 23:33:30;;;;;;;;;;;17.90;37.30;;;;;;8362278;28;19928;-45